sensor_id;sensor_type;location;lat;lon;timestamp;P1;durP1;ratioP1;P2;durP2;ratioP2
8938;SDS011;4504;48.810;9.172;2022-08-19T00:00:50;104.60;;;4.40;;
8938;SDS011;4504;48.810;9.172;2022-08-19T00:03:17;106.73;;;4.93;;
8938;SDS011;4504;48.810;9.172;2022-08-19T00:05:44;104.77;;;5.23;;
8938;SDS011;4504;48.810;9.172;2022-08-19T00:08:11;103.65;;;4.20;;
8938;SDS011;4504;48.810;9.172;2022-08-19T00:10:39;104.90;;;4.60;;
8938;SDS011;4504;48.810;9.172;2022-08-19T00:13:06;104.90;;;4.63;;
8938;SDS011;4504;48.810;9.172;2022-08-19T00:15:34;104.95;;;5.10;;
8938;SDS011;4504;48.810;9.172;2022-08-19T00:18:02;104.40;;;4.83;;
8938;SDS011;4504;48.810;9.172;2022-08-19T00:20:29;105.13;;;4.10;;
8938;SDS011;4504;48.810;9.172;2022-08-19T00:22:56;103.97;;;4.50;;
8938;SDS011;4504;48.810;9.172;2022-08-19T00:25:23;105.57;;;4.80;;
8938;SDS011;4504;48.810;9.172;2022-08-19T00:27:51;105.47;;;4.90;;
8938;SDS011;4504;48.810;9.172;2022-08-19T00:30:18;105.20;;;5.17;;
8938;SDS011;4504;48.810;9.172;2022-08-19T00:32:45;107.50;;;5.03;;
8938;SDS011;4504;48.810;9.172;2022-08-19T00:35:12;105.60;;;4.93;;
8938;SDS011;4504;48.810;9.172;2022-08-19T00:37:39;106.90;;;5.20;;
8938;SDS011;4504;48.810;9.172;2022-08-19T00:40:09;106.97;;;4.83;;
8938;SDS011;4504;48.810;9.172;2022-08-19T00:42:38;108.57;;;4.90;;
8938;SDS011;4504;48.810;9.172;2022-08-19T00:45:08;106.17;;;5.30;;
8938;SDS011;4504;48.810;9.172;2022-08-19T00:47:37;104.55;;;4.30;;
8938;SDS011;4504;48.810;9.172;2022-08-19T00:50:05;107.50;;;4.90;;
8938;SDS011;4504;48.810;9.172;2022-08-19T00:52:36;107.70;;;5.20;;
8938;SDS011;4504;48.810;9.172;2022-08-19T00:55:09;108.80;;;5.70;;
8938;SDS011;4504;48.810;9.172;2022-08-19T00:57:39;105.27;;;4.53;;
8938;SDS011;4504;48.810;9.172;2022-08-19T01:00:12;106.17;;;4.83;;
8938;SDS011;4504;48.810;9.172;2022-08-19T01:02:42;105.40;;;4.87;;
8938;SDS011;4504;48.810;9.172;2022-08-19T01:05:10;105.23;;;4.37;;
8938;SDS011;4504;48.810;9.172;2022-08-19T01:07:40;107.63;;;5.40;;
8938;SDS011;4504;48.810;9.172;2022-08-19T01:10:09;105.97;;;4.70;;
8938;SDS011;4504;48.810;9.172;2022-08-19T01:12:38;105.40;;;4.57;;
8938;SDS011;4504;48.810;9.172;2022-08-19T01:15:07;106.30;;;5.10;;
8938;SDS011;4504;48.810;9.172;2022-08-19T01:17:38;106.27;;;4.47;;
8938;SDS011;4504;48.810;9.172;2022-08-19T01:20:07;106.37;;;4.57;;
8938;SDS011;4504;48.810;9.172;2022-08-19T01:22:39;105.57;;;4.37;;
8938;SDS011;4504;48.810;9.172;2022-08-19T01:25:10;107.80;;;5.57;;
8938;SDS011;4504;48.810;9.172;2022-08-19T01:27:39;108.10;;;4.97;;
8938;SDS011;4504;48.810;9.172;2022-08-19T01:30:08;106.93;;;4.87;;
8938;SDS011;4504;48.810;9.172;2022-08-19T01:32:37;107.73;;;5.33;;
8938;SDS011;4504;48.810;9.172;2022-08-19T01:35:04;108.47;;;5.40;;
8938;SDS011;4504;48.810;9.172;2022-08-19T01:37:42;104.97;;;4.40;;
8938;SDS011;4504;48.810;9.172;2022-08-19T01:40:11;110.50;;;5.40;;
8938;SDS011;4504;48.810;9.172;2022-08-19T01:42:39;105.33;;;5.07;;
8938;SDS011;4504;48.810;9.172;2022-08-19T01:45:06;106.78;;;5.13;;
8938;SDS011;4504;48.810;9.172;2022-08-19T01:47:34;105.97;;;5.03;;
8938;SDS011;4504;48.810;9.172;2022-08-19T01:50:02;107.57;;;5.70;;
8938;SDS011;4504;48.810;9.172;2022-08-19T01:52:30;108.00;;;5.50;;
8938;SDS011;4504;48.810;9.172;2022-08-19T01:54:59;107.37;;;5.20;;
8938;SDS011;4504;48.810;9.172;2022-08-19T01:57:26;111.60;;;5.63;;
8938;SDS011;4504;48.810;9.172;2022-08-19T01:59:53;106.00;;;4.67;;
8938;SDS011;4504;48.810;9.172;2022-08-19T02:02:21;106.07;;;5.00;;
8938;SDS011;4504;48.810;9.172;2022-08-19T02:04:48;105.97;;;4.90;;
8938;SDS011;4504;48.810;9.172;2022-08-19T02:07:15;107.00;;;5.50;;
8938;SDS011;4504;48.810;9.172;2022-08-19T02:09:45;108.23;;;5.10;;
8938;SDS011;4504;48.810;9.172;2022-08-19T02:12:14;107.40;;;5.13;;
8938;SDS011;4504;48.810;9.172;2022-08-19T02:14:42;107.77;;;5.90;;
8938;SDS011;4504;48.810;9.172;2022-08-19T02:17:09;107.77;;;5.97;;
8938;SDS011;4504;48.810;9.172;2022-08-19T02:19:36;107.17;;;5.63;;
8938;SDS011;4504;48.810;9.172;2022-08-19T02:22:03;111.77;;;6.00;;
8938;SDS011;4504;48.810;9.172;2022-08-19T02:24:31;107.72;;;5.55;;
8938;SDS011;4504;48.810;9.172;2022-08-19T02:26:58;108.63;;;5.57;;
8938;SDS011;4504;48.810;9.172;2022-08-19T02:29:26;105.90;;;5.20;;
8938;SDS011;4504;48.810;9.172;2022-08-19T02:31:54;109.00;;;5.57;;
8938;SDS011;4504;48.810;9.172;2022-08-19T02:34:21;110.40;;;6.27;;
8938;SDS011;4504;48.810;9.172;2022-08-19T02:36:50;107.37;;;6.33;;
8938;SDS011;4504;48.810;9.172;2022-08-19T02:39:17;104.20;;;5.75;;
8938;SDS011;4504;48.810;9.172;2022-08-19T02:41:43;106.00;;;5.73;;
8938;SDS011;4504;48.810;9.172;2022-08-19T02:44:10;109.17;;;6.10;;
8938;SDS011;4504;48.810;9.172;2022-08-19T02:46:39;109.67;;;5.63;;
8938;SDS011;4504;48.810;9.172;2022-08-19T02:49:06;106.97;;;5.57;;
8938;SDS011;4504;48.810;9.172;2022-08-19T02:51:35;110.40;;;6.77;;
8938;SDS011;4504;48.810;9.172;2022-08-19T02:54:04;108.77;;;6.30;;
8938;SDS011;4504;48.810;9.172;2022-08-19T02:56:34;111.33;;;6.67;;
8938;SDS011;4504;48.810;9.172;2022-08-19T02:59:01;108.28;;;6.05;;
8938;SDS011;4504;48.810;9.172;2022-08-19T03:01:32;107.03;;;5.43;;
8938;SDS011;4504;48.810;9.172;2022-08-19T03:04:02;107.97;;;6.37;;
8938;SDS011;4504;48.810;9.172;2022-08-19T03:06:31;107.17;;;5.83;;
8938;SDS011;4504;48.810;9.172;2022-08-19T03:09:02;109.97;;;6.13;;
8938;SDS011;4504;48.810;9.172;2022-08-19T03:11:30;108.17;;;5.77;;
8938;SDS011;4504;48.810;9.172;2022-08-19T03:13:58;108.57;;;6.17;;
8938;SDS011;4504;48.810;9.172;2022-08-19T03:16:27;109.33;;;6.73;;
8938;SDS011;4504;48.810;9.172;2022-08-19T03:18:56;109.23;;;5.87;;
8938;SDS011;4504;48.810;9.172;2022-08-19T03:21:27;110.47;;;6.10;;
8938;SDS011;4504;48.810;9.172;2022-08-19T03:23:55;109.37;;;6.23;;
8938;SDS011;4504;48.810;9.172;2022-08-19T03:26:23;108.47;;;5.40;;
8938;SDS011;4504;48.810;9.172;2022-08-19T03:28:50;113.57;;;7.93;;
8938;SDS011;4504;48.810;9.172;2022-08-19T03:31:19;109.40;;;6.73;;
8938;SDS011;4504;48.810;9.172;2022-08-19T03:33:48;109.00;;;6.70;;
8938;SDS011;4504;48.810;9.172;2022-08-19T03:36:17;109.53;;;6.40;;
8938;SDS011;4504;48.810;9.172;2022-08-19T03:38:47;114.67;;;6.43;;
8938;SDS011;4504;48.810;9.172;2022-08-19T03:41:17;110.20;;;6.57;;
8938;SDS011;4504;48.810;9.172;2022-08-19T03:43:45;111.55;;;7.07;;
8938;SDS011;4504;48.810;9.172;2022-08-19T03:46:15;109.60;;;6.65;;
8938;SDS011;4504;48.810;9.172;2022-08-19T03:48:46;109.07;;;6.20;;
8938;SDS011;4504;48.810;9.172;2022-08-19T03:51:17;110.57;;;6.90;;
8938;SDS011;4504;48.810;9.172;2022-08-19T03:53:47;113.23;;;8.00;;
8938;SDS011;4504;48.810;9.172;2022-08-19T03:56:15;108.30;;;5.63;;
8938;SDS011;4504;48.810;9.172;2022-08-19T03:58:42;109.18;;;6.32;;
8938;SDS011;4504;48.810;9.172;2022-08-19T04:01:12;107.93;;;7.05;;
8938;SDS011;4504;48.810;9.172;2022-08-19T04:03:40;109.93;;;7.00;;
8938;SDS011;4504;48.810;9.172;2022-08-19T04:06:11;111.50;;;7.33;;
8938;SDS011;4504;48.810;9.172;2022-08-19T04:08:38;109.93;;;6.77;;
8938;SDS011;4504;48.810;9.172;2022-08-19T04:11:08;110.67;;;6.93;;
8938;SDS011;4504;48.810;9.172;2022-08-19T04:13:35;108.77;;;6.33;;
8938;SDS011;4504;48.810;9.172;2022-08-19T04:16:03;108.57;;;6.40;;
8938;SDS011;4504;48.810;9.172;2022-08-19T04:18:31;111.13;;;7.33;;
8938;SDS011;4504;48.810;9.172;2022-08-19T04:20:59;111.77;;;7.13;;
8938;SDS011;4504;48.810;9.172;2022-08-19T04:23:26;108.00;;;6.33;;
8938;SDS011;4504;48.810;9.172;2022-08-19T04:25:54;110.87;;;7.27;;
8938;SDS011;4504;48.810;9.172;2022-08-19T04:28:23;111.87;;;7.23;;
8938;SDS011;4504;48.810;9.172;2022-08-19T04:30:51;109.53;;;6.80;;
8938;SDS011;4504;48.810;9.172;2022-08-19T04:33:20;109.30;;;6.63;;
8938;SDS011;4504;48.810;9.172;2022-08-19T04:35:52;114.30;;;7.57;;
8938;SDS011;4504;48.810;9.172;2022-08-19T04:38:20;107.70;;;6.72;;
8938;SDS011;4504;48.810;9.172;2022-08-19T04:40:49;114.07;;;7.35;;
8938;SDS011;4504;48.810;9.172;2022-08-19T04:43:36;114.57;;;7.40;;
8938;SDS011;4504;48.810;9.172;2022-08-19T04:46:04;111.13;;;7.80;;
8938;SDS011;4504;48.810;9.172;2022-08-19T04:48:32;111.80;;;7.40;;
8938;SDS011;4504;48.810;9.172;2022-08-19T04:50:59;109.70;;;7.50;;
8938;SDS011;4504;48.810;9.172;2022-08-19T04:53:27;113.10;;;7.60;;
8938;SDS011;4504;48.810;9.172;2022-08-19T04:55:55;109.97;;;6.27;;
8938;SDS011;4504;48.810;9.172;2022-08-19T04:58:23;113.27;;;7.63;;
8938;SDS011;4504;48.810;9.172;2022-08-19T05:00:52;109.67;;;6.30;;
8938;SDS011;4504;48.810;9.172;2022-08-19T05:03:20;111.10;;;7.10;;
8938;SDS011;4504;48.810;9.172;2022-08-19T05:05:47;109.20;;;6.73;;
8938;SDS011;4504;48.810;9.172;2022-08-19T05:08:15;111.27;;;7.33;;
8938;SDS011;4504;48.810;9.172;2022-08-19T05:10:44;112.30;;;7.70;;
8938;SDS011;4504;48.810;9.172;2022-08-19T05:13:13;110.00;;;7.10;;
8938;SDS011;4504;48.810;9.172;2022-08-19T05:15:41;108.77;;;6.90;;
8938;SDS011;4504;48.810;9.172;2022-08-19T05:18:10;109.80;;;6.65;;
8938;SDS011;4504;48.810;9.172;2022-08-19T05:20:54;110.37;;;7.73;;
8938;SDS011;4504;48.810;9.172;2022-08-19T05:23:39;110.03;;;6.63;;
8938;SDS011;4504;48.810;9.172;2022-08-19T05:26:06;110.60;;;6.53;;
8938;SDS011;4504;48.810;9.172;2022-08-19T05:28:35;109.77;;;7.17;;
8938;SDS011;4504;48.810;9.172;2022-08-19T05:31:02;110.40;;;7.50;;
8938;SDS011;4504;48.810;9.172;2022-08-19T05:33:31;109.23;;;7.70;;
8938;SDS011;4504;48.810;9.172;2022-08-19T05:35:58;112.27;;;7.63;;
8938;SDS011;4504;48.810;9.172;2022-08-19T05:38:25;109.77;;;7.07;;
8938;SDS011;4504;48.810;9.172;2022-08-19T05:40:52;110.20;;;7.87;;
8938;SDS011;4504;48.810;9.172;2022-08-19T05:43:20;108.57;;;6.77;;
8938;SDS011;4504;48.810;9.172;2022-08-19T05:45:47;111.70;;;8.30;;
8938;SDS011;4504;48.810;9.172;2022-08-19T05:48:15;110.43;;;7.10;;
8938;SDS011;4504;48.810;9.172;2022-08-19T05:50:47;110.10;;;6.60;;
8938;SDS011;4504;48.810;9.172;2022-08-19T05:53:15;109.80;;;7.17;;
8938;SDS011;4504;48.810;9.172;2022-08-19T05:55:42;111.20;;;7.00;;
8938;SDS011;4504;48.810;9.172;2022-08-19T05:58:09;110.30;;;7.90;;
8938;SDS011;4504;48.810;9.172;2022-08-19T06:00:36;108.90;;;6.50;;
8938;SDS011;4504;48.810;9.172;2022-08-19T06:03:05;111.57;;;6.83;;
8938;SDS011;4504;48.810;9.172;2022-08-19T06:05:32;109.30;;;7.07;;
8938;SDS011;4504;48.810;9.172;2022-08-19T06:08:00;109.67;;;6.83;;
8938;SDS011;4504;48.810;9.172;2022-08-19T06:10:28;109.65;;;6.65;;
8938;SDS011;4504;48.810;9.172;2022-08-19T06:12:55;111.30;;;7.07;;
8938;SDS011;4504;48.810;9.172;2022-08-19T06:15:22;110.10;;;7.00;;
8938;SDS011;4504;48.810;9.172;2022-08-19T06:17:50;111.40;;;7.47;;
8938;SDS011;4504;48.810;9.172;2022-08-19T06:20:18;111.70;;;7.87;;
8938;SDS011;4504;48.810;9.172;2022-08-19T06:22:47;109.32;;;6.55;;
8938;SDS011;4504;48.810;9.172;2022-08-19T06:25:18;112.63;;;7.83;;
8938;SDS011;4504;48.810;9.172;2022-08-19T06:27:45;110.93;;;7.03;;
8938;SDS011;4504;48.810;9.172;2022-08-19T06:30:12;111.90;;;8.10;;
8938;SDS011;4504;48.810;9.172;2022-08-19T06:32:40;113.77;;;6.97;;
8938;SDS011;4504;48.810;9.172;2022-08-19T06:35:07;111.13;;;6.73;;
8938;SDS011;4504;48.810;9.172;2022-08-19T06:37:34;112.30;;;8.20;;
8938;SDS011;4504;48.810;9.172;2022-08-19T06:40:03;109.37;;;7.03;;
8938;SDS011;4504;48.810;9.172;2022-08-19T06:42:34;108.00;;;7.10;;
8938;SDS011;4504;48.810;9.172;2022-08-19T06:45:03;111.17;;;7.60;;
8938;SDS011;4504;48.810;9.172;2022-08-19T06:47:33;110.30;;;6.45;;
8938;SDS011;4504;48.810;9.172;2022-08-19T06:50:00;111.00;;;6.93;;
8938;SDS011;4504;48.810;9.172;2022-08-19T06:52:30;113.57;;;7.63;;
8938;SDS011;4504;48.810;9.172;2022-08-19T06:54:58;110.80;;;7.27;;
8938;SDS011;4504;48.810;9.172;2022-08-19T06:57:25;120.05;;;7.60;;
8938;SDS011;4504;48.810;9.172;2022-08-19T06:59:54;112.33;;;7.53;;
8938;SDS011;4504;48.810;9.172;2022-08-19T07:02:21;112.85;;;7.15;;
8938;SDS011;4504;48.810;9.172;2022-08-19T07:04:51;110.77;;;7.30;;
8938;SDS011;4504;48.810;9.172;2022-08-19T07:07:19;109.10;;;7.53;;
8938;SDS011;4504;48.810;9.172;2022-08-19T07:09:47;109.87;;;7.10;;
8938;SDS011;4504;48.810;9.172;2022-08-19T07:12:15;109.73;;;7.10;;
8938;SDS011;4504;48.810;9.172;2022-08-19T07:14:43;108.50;;;6.67;;
8938;SDS011;4504;48.810;9.172;2022-08-19T07:17:15;109.13;;;7.00;;
8938;SDS011;4504;48.810;9.172;2022-08-19T07:19:41;109.37;;;6.60;;
8938;SDS011;4504;48.810;9.172;2022-08-19T07:22:09;114.07;;;7.40;;
8938;SDS011;4504;48.810;9.172;2022-08-19T07:24:36;111.97;;;7.80;;
8938;SDS011;4504;48.810;9.172;2022-08-19T07:27:04;111.50;;;7.87;;
8938;SDS011;4504;48.810;9.172;2022-08-19T07:29:33;108.93;;;6.57;;
8938;SDS011;4504;48.810;9.172;2022-08-19T07:32:01;113.77;;;6.83;;
8938;SDS011;4504;48.810;9.172;2022-08-19T07:34:30;108.87;;;6.53;;
8938;SDS011;4504;48.810;9.172;2022-08-19T07:37:03;113.27;;;6.70;;
8938;SDS011;4504;48.810;9.172;2022-08-19T07:39:31;114.33;;;7.47;;
8938;SDS011;4504;48.810;9.172;2022-08-19T07:42:00;111.57;;;6.80;;
8938;SDS011;4504;48.810;9.172;2022-08-19T07:44:31;111.67;;;7.57;;
8938;SDS011;4504;48.810;9.172;2022-08-19T07:46:59;111.40;;;6.97;;
8938;SDS011;4504;48.810;9.172;2022-08-19T07:49:27;108.40;;;6.55;;
8938;SDS011;4504;48.810;9.172;2022-08-19T07:51:56;108.77;;;6.20;;
8938;SDS011;4504;48.810;9.172;2022-08-19T07:54:27;110.63;;;6.90;;
8938;SDS011;4504;48.810;9.172;2022-08-19T07:56:56;115.73;;;5.80;;
8938;SDS011;4504;48.810;9.172;2022-08-19T07:59:23;107.80;;;6.40;;
8938;SDS011;4504;48.810;9.172;2022-08-19T08:01:50;109.97;;;6.90;;
8938;SDS011;4504;48.810;9.172;2022-08-19T08:04:19;110.43;;;6.80;;
8938;SDS011;4504;48.810;9.172;2022-08-19T08:07:05;108.85;;;6.15;;
8938;SDS011;4504;48.810;9.172;2022-08-19T08:09:51;109.90;;;6.23;;
8938;SDS011;4504;48.810;9.172;2022-08-19T08:12:21;112.53;;;6.40;;
8938;SDS011;4504;48.810;9.172;2022-08-19T08:14:51;108.80;;;5.83;;
8938;SDS011;4504;48.810;9.172;2022-08-19T08:17:20;109.40;;;6.17;;
8938;SDS011;4504;48.810;9.172;2022-08-19T08:19:49;112.13;;;6.23;;
8938;SDS011;4504;48.810;9.172;2022-08-19T08:22:19;107.43;;;5.67;;
8938;SDS011;4504;48.810;9.172;2022-08-19T08:25:04;108.17;;;5.70;;
8938;SDS011;4504;48.810;9.172;2022-08-19T08:27:35;107.45;;;5.90;;
8938;SDS011;4504;48.810;9.172;2022-08-19T08:30:05;108.27;;;5.90;;
8938;SDS011;4504;48.810;9.172;2022-08-19T08:32:34;109.17;;;6.60;;
8938;SDS011;4504;48.810;9.172;2022-08-19T08:35:02;108.37;;;6.13;;
8938;SDS011;4504;48.810;9.172;2022-08-19T08:37:31;107.27;;;5.67;;
8938;SDS011;4504;48.810;9.172;2022-08-19T08:39:58;109.90;;;6.67;;
8938;SDS011;4504;48.810;9.172;2022-08-19T08:42:30;112.67;;;6.97;;
8938;SDS011;4504;48.810;9.172;2022-08-19T08:45:03;109.77;;;6.20;;
8938;SDS011;4504;48.810;9.172;2022-08-19T08:47:36;111.53;;;6.87;;
8938;SDS011;4504;48.810;9.172;2022-08-19T08:50:07;110.60;;;6.50;;
8938;SDS011;4504;48.810;9.172;2022-08-19T08:52:42;108.53;;;6.13;;
8938;SDS011;4504;48.810;9.172;2022-08-19T08:55:14;109.27;;;7.00;;
8938;SDS011;4504;48.810;9.172;2022-08-19T08:57:51;113.95;;;6.50;;
8938;SDS011;4504;48.810;9.172;2022-08-19T09:00:24;108.63;;;6.30;;
8938;SDS011;4504;48.810;9.172;2022-08-19T09:02:54;108.20;;;6.30;;
8938;SDS011;4504;48.810;9.172;2022-08-19T09:05:22;110.40;;;6.60;;
8938;SDS011;4504;48.810;9.172;2022-08-19T09:07:59;107.40;;;5.47;;
8938;SDS011;4504;48.810;9.172;2022-08-19T09:10:29;106.93;;;6.00;;
8938;SDS011;4504;48.810;9.172;2022-08-19T09:13:03;105.55;;;5.40;;
8938;SDS011;4504;48.810;9.172;2022-08-19T09:15:36;108.37;;;5.83;;
8938;SDS011;4504;48.810;9.172;2022-08-19T09:18:06;108.80;;;5.67;;
8938;SDS011;4504;48.810;9.172;2022-08-19T09:20:35;109.37;;;6.20;;
8938;SDS011;4504;48.810;9.172;2022-08-19T09:23:03;106.77;;;6.03;;
8938;SDS011;4504;48.810;9.172;2022-08-19T09:25:30;109.00;;;5.70;;
8938;SDS011;4504;48.810;9.172;2022-08-19T09:27:59;105.00;;;5.10;;
8938;SDS011;4504;48.810;9.172;2022-08-19T09:30:28;107.30;;;5.25;;
8938;SDS011;4504;48.810;9.172;2022-08-19T09:32:57;106.80;;;5.83;;
8938;SDS011;4504;48.810;9.172;2022-08-19T09:35:25;106.80;;;5.17;;
8938;SDS011;4504;48.810;9.172;2022-08-19T09:37:54;108.77;;;5.37;;
8938;SDS011;4504;48.810;9.172;2022-08-19T09:40:24;108.07;;;6.77;;
8938;SDS011;4504;48.810;9.172;2022-08-19T09:42:52;106.40;;;5.67;;
8938;SDS011;4504;48.810;9.172;2022-08-19T09:45:20;106.50;;;5.23;;
8938;SDS011;4504;48.810;9.172;2022-08-19T09:47:48;107.80;;;5.87;;
8938;SDS011;4504;48.810;9.172;2022-08-19T09:50:16;105.43;;;5.60;;
8938;SDS011;4504;48.810;9.172;2022-08-19T09:52:44;107.03;;;5.00;;
8938;SDS011;4504;48.810;9.172;2022-08-19T09:55:12;107.07;;;4.83;;
8938;SDS011;4504;48.810;9.172;2022-08-19T09:57:42;105.67;;;5.03;;
8938;SDS011;4504;48.810;9.172;2022-08-19T10:00:09;110.87;;;6.27;;
8938;SDS011;4504;48.810;9.172;2022-08-19T10:02:37;106.43;;;5.07;;
8938;SDS011;4504;48.810;9.172;2022-08-19T10:05:04;106.23;;;5.23;;
8938;SDS011;4504;48.810;9.172;2022-08-19T10:07:49;106.97;;;5.20;;
8938;SDS011;4504;48.810;9.172;2022-08-19T10:10:17;108.57;;;5.87;;
8938;SDS011;4504;48.810;9.172;2022-08-19T10:12:45;105.23;;;4.83;;
8938;SDS011;4504;48.810;9.172;2022-08-19T10:15:12;107.10;;;4.80;;
8938;SDS011;4504;48.810;9.172;2022-08-19T10:17:40;107.83;;;5.57;;
8938;SDS011;4504;48.810;9.172;2022-08-19T10:20:07;107.83;;;4.90;;
8938;SDS011;4504;48.810;9.172;2022-08-19T10:22:35;107.73;;;4.40;;
8938;SDS011;4504;48.810;9.172;2022-08-19T10:25:03;106.70;;;5.60;;
8938;SDS011;4504;48.810;9.172;2022-08-19T10:27:32;108.43;;;4.90;;
8938;SDS011;4504;48.810;9.172;2022-08-19T10:30:00;106.90;;;4.80;;
8938;SDS011;4504;48.810;9.172;2022-08-19T10:32:27;105.07;;;4.27;;
8938;SDS011;4504;48.810;9.172;2022-08-19T10:34:54;104.60;;;3.97;;
8938;SDS011;4504;48.810;9.172;2022-08-19T10:37:22;107.05;;;4.50;;
8938;SDS011;4504;48.810;9.172;2022-08-19T10:39:50;108.90;;;4.60;;
8938;SDS011;4504;48.810;9.172;2022-08-19T10:42:17;104.40;;;4.43;;
8938;SDS011;4504;48.810;9.172;2022-08-19T10:44:45;106.37;;;4.43;;
8938;SDS011;4504;48.810;9.172;2022-08-19T10:47:14;106.33;;;4.63;;
8938;SDS011;4504;48.810;9.172;2022-08-19T10:49:41;104.60;;;4.30;;
8938;SDS011;4504;48.810;9.172;2022-08-19T10:52:26;104.90;;;4.27;;
8938;SDS011;4504;48.810;9.172;2022-08-19T10:54:59;104.27;;;4.07;;
8938;SDS011;4504;48.810;9.172;2022-08-19T10:57:44;104.47;;;4.37;;
8938;SDS011;4504;48.810;9.172;2022-08-19T11:00:12;106.90;;;4.40;;
8938;SDS011;4504;48.810;9.172;2022-08-19T11:02:41;108.67;;;3.87;;
8938;SDS011;4504;48.810;9.172;2022-08-19T11:05:08;105.17;;;4.07;;
8938;SDS011;4504;48.810;9.172;2022-08-19T11:07:37;103.33;;;3.93;;
8938;SDS011;4504;48.810;9.172;2022-08-19T11:10:05;115.33;;;4.30;;
8938;SDS011;4504;48.810;9.172;2022-08-19T11:12:32;106.20;;;4.00;;
8938;SDS011;4504;48.810;9.172;2022-08-19T11:14:59;106.70;;;4.33;;
8938;SDS011;4504;48.810;9.172;2022-08-19T11:17:26;107.40;;;3.50;;
8938;SDS011;4504;48.810;9.172;2022-08-19T11:19:58;106.35;;;3.58;;
8938;SDS011;4504;48.810;9.172;2022-08-19T11:22:28;108.83;;;3.90;;
8938;SDS011;4504;48.810;9.172;2022-08-19T11:24:55;104.83;;;3.77;;
8938;SDS011;4504;48.810;9.172;2022-08-19T11:27:21;103.10;;;3.90;;
8938;SDS011;4504;48.810;9.172;2022-08-19T11:29:48;102.87;;;3.57;;
8938;SDS011;4504;48.810;9.172;2022-08-19T11:32:15;104.20;;;3.77;;
8938;SDS011;4504;48.810;9.172;2022-08-19T11:34:42;105.10;;;3.77;;
8938;SDS011;4504;48.810;9.172;2022-08-19T11:37:11;103.57;;;3.63;;
8938;SDS011;4504;48.810;9.172;2022-08-19T11:39:38;102.40;;;3.73;;
8938;SDS011;4504;48.810;9.172;2022-08-19T11:42:05;103.57;;;3.17;;
8938;SDS011;4504;48.810;9.172;2022-08-19T11:44:53;104.00;;;4.10;;
8938;SDS011;4504;48.810;9.172;2022-08-19T11:47:20;107.70;;;4.20;;
8938;SDS011;4504;48.810;9.172;2022-08-19T11:49:47;105.53;;;3.93;;
8938;SDS011;4504;48.810;9.172;2022-08-19T11:52:16;102.53;;;3.70;;
8938;SDS011;4504;48.810;9.172;2022-08-19T11:54:43;103.43;;;3.50;;
8938;SDS011;4504;48.810;9.172;2022-08-19T11:57:10;103.10;;;3.67;;
8938;SDS011;4504;48.810;9.172;2022-08-19T11:59:36;106.30;;;3.65;;
8938;SDS011;4504;48.810;9.172;2022-08-19T12:02:03;102.47;;;3.47;;
8938;SDS011;4504;48.810;9.172;2022-08-19T12:04:30;104.37;;;3.80;;
8938;SDS011;4504;48.810;9.172;2022-08-19T12:06:57;104.50;;;4.03;;
8938;SDS011;4504;48.810;9.172;2022-08-19T12:09:26;101.97;;;3.50;;
8938;SDS011;4504;48.810;9.172;2022-08-19T12:11:53;103.00;;;4.07;;
8938;SDS011;4504;48.810;9.172;2022-08-19T12:14:20;102.77;;;3.50;;
8938;SDS011;4504;48.810;9.172;2022-08-19T12:16:48;104.00;;;3.73;;
8938;SDS011;4504;48.810;9.172;2022-08-19T12:19:15;102.55;;;3.35;;
8938;SDS011;4504;48.810;9.172;2022-08-19T12:21:42;105.18;;;4.25;;
8938;SDS011;4504;48.810;9.172;2022-08-19T12:24:09;102.70;;;3.90;;
8938;SDS011;4504;48.810;9.172;2022-08-19T12:26:37;104.40;;;4.37;;
8938;SDS011;4504;48.810;9.172;2022-08-19T12:29:04;101.97;;;3.87;;
8938;SDS011;4504;48.810;9.172;2022-08-19T12:31:32;103.10;;;3.77;;
8938;SDS011;4504;48.810;9.172;2022-08-19T12:33:59;104.37;;;3.90;;
8938;SDS011;4504;48.810;9.172;2022-08-19T12:36:26;102.90;;;3.45;;
8938;SDS011;4504;48.810;9.172;2022-08-19T12:38:53;103.78;;;5.13;;
8938;SDS011;4504;48.810;9.172;2022-08-19T12:41:20;101.70;;;3.60;;
8938;SDS011;4504;48.810;9.172;2022-08-19T12:43:49;103.77;;;3.60;;
8938;SDS011;4504;48.810;9.172;2022-08-19T12:46:16;107.10;;;4.33;;
8938;SDS011;4504;48.810;9.172;2022-08-19T12:48:44;103.87;;;4.60;;
8938;SDS011;4504;48.810;9.172;2022-08-19T12:51:12;109.57;;;4.87;;
8938;SDS011;4504;48.810;9.172;2022-08-19T12:53:43;109.60;;;5.00;;
8938;SDS011;4504;48.810;9.172;2022-08-19T12:56:10;104.67;;;5.00;;
8938;SDS011;4504;48.810;9.172;2022-08-19T12:58:40;103.60;;;4.33;;
8938;SDS011;4504;48.810;9.172;2022-08-19T13:01:10;103.97;;;4.70;;
8938;SDS011;4504;48.810;9.172;2022-08-19T13:03:38;103.40;;;4.25;;
8938;SDS011;4504;48.810;9.172;2022-08-19T13:06:06;102.80;;;4.20;;
8938;SDS011;4504;48.810;9.172;2022-08-19T13:08:34;104.10;;;4.35;;
8938;SDS011;4504;48.810;9.172;2022-08-19T13:11:08;104.63;;;4.30;;
8938;SDS011;4504;48.810;9.172;2022-08-19T13:13:37;102.83;;;4.30;;
8938;SDS011;4504;48.810;9.172;2022-08-19T13:16:06;103.70;;;4.50;;
8938;SDS011;4504;48.810;9.172;2022-08-19T13:18:36;104.40;;;4.40;;
8938;SDS011;4504;48.810;9.172;2022-08-19T13:21:04;103.87;;;4.90;;
8938;SDS011;4504;48.810;9.172;2022-08-19T13:23:32;103.97;;;4.50;;
8938;SDS011;4504;48.810;9.172;2022-08-19T13:26:01;104.20;;;4.63;;
8938;SDS011;4504;48.810;9.172;2022-08-19T13:28:30;103.28;;;4.75;;
8938;SDS011;4504;48.810;9.172;2022-08-19T13:31:15;105.63;;;5.80;;
8938;SDS011;4504;48.810;9.172;2022-08-19T13:34:00;107.80;;;5.53;;
8938;SDS011;4504;48.810;9.172;2022-08-19T13:36:28;109.20;;;5.50;;
8938;SDS011;4504;48.810;9.172;2022-08-19T13:38:55;106.88;;;4.63;;
8938;SDS011;4504;48.810;9.172;2022-08-19T13:41:23;104.67;;;5.03;;
8938;SDS011;4504;48.810;9.172;2022-08-19T13:43:50;106.63;;;5.97;;
8938;SDS011;4504;48.810;9.172;2022-08-19T13:46:18;106.80;;;6.63;;
8938;SDS011;4504;48.810;9.172;2022-08-19T13:48:46;106.07;;;6.27;;
8938;SDS011;4504;48.810;9.172;2022-08-19T13:51:13;107.97;;;6.43;;
8938;SDS011;4504;48.810;9.172;2022-08-19T13:53:41;110.77;;;6.80;;
8938;SDS011;4504;48.810;9.172;2022-08-19T13:56:10;107.07;;;6.30;;
8938;SDS011;4504;48.810;9.172;2022-08-19T13:58:38;108.60;;;7.13;;
8938;SDS011;4504;48.810;9.172;2022-08-19T14:01:05;109.30;;;7.03;;
8938;SDS011;4504;48.810;9.172;2022-08-19T14:03:34;109.17;;;6.57;;
8938;SDS011;4504;48.810;9.172;2022-08-19T14:06:02;106.57;;;6.70;;
8938;SDS011;4504;48.810;9.172;2022-08-19T14:08:29;111.30;;;7.00;;
8938;SDS011;4504;48.810;9.172;2022-08-19T14:10:57;109.83;;;7.70;;
8938;SDS011;4504;48.810;9.172;2022-08-19T14:13:24;108.60;;;6.60;;
8938;SDS011;4504;48.810;9.172;2022-08-19T14:15:51;111.43;;;7.73;;
8938;SDS011;4504;48.810;9.172;2022-08-19T14:18:19;109.07;;;6.80;;
8938;SDS011;4504;48.810;9.172;2022-08-19T14:20:48;113.53;;;7.10;;
8938;SDS011;4504;48.810;9.172;2022-08-19T14:23:15;111.67;;;6.53;;
8938;SDS011;4504;48.810;9.172;2022-08-19T14:25:42;110.25;;;7.05;;
8938;SDS011;4504;48.810;9.172;2022-08-19T14:28:10;107.77;;;7.17;;
8938;SDS011;4504;48.810;9.172;2022-08-19T14:30:38;121.70;;;7.93;;
8938;SDS011;4504;48.810;9.172;2022-08-19T14:33:05;111.47;;;6.70;;
8938;SDS011;4504;48.810;9.172;2022-08-19T14:35:33;109.50;;;7.33;;
8938;SDS011;4504;48.810;9.172;2022-08-19T14:38:02;108.77;;;5.97;;
8938;SDS011;4504;48.810;9.172;2022-08-19T14:40:30;106.87;;;6.10;;
8938;SDS011;4504;48.810;9.172;2022-08-19T14:42:58;110.60;;;7.97;;
8938;SDS011;4504;48.810;9.172;2022-08-19T14:45:29;110.60;;;7.17;;
8938;SDS011;4504;48.810;9.172;2022-08-19T14:47:57;108.37;;;6.30;;
8938;SDS011;4504;48.810;9.172;2022-08-19T14:50:25;107.60;;;6.30;;
8938;SDS011;4504;48.810;9.172;2022-08-19T14:52:57;109.70;;;6.77;;
8938;SDS011;4504;48.810;9.172;2022-08-19T14:55:26;107.43;;;6.03;;
8938;SDS011;4504;48.810;9.172;2022-08-19T14:57:53;105.07;;;5.60;;